ESUT

Hemavan Airport

Sweden
METAR ESUT 151920Z AUTO 00000KT 9999 OVC008/// M15/M16 Q0994
Observed Flight Rules
Dec-15 @ 19:20 UTC (33 minutes ago) Instrument Flight Rules
Wind Visibility Clouds
Calm 10,000+ meters
  • Overcast at 800' AGL
Temperatures Readings
Current -15°C / 5°F
Dewpoint -16°C / 3°F
Humidity 92%
Altimeter 29.35" Hg
Pressure 994 hPa
Elevation 463
METAR ESUT 151920Z AUTO 00000KT 9999 OVC008/// M15/M16 Q0994
Observed Flight Rules
Dec-15 @ 19:20 UTC
(33 minutes ago)
IFR
Wind Visibility
Calm 10,000+ meters
Clouds
  • Overcast at 800' AGL
Temperature Dewpoint
-15°C / 5°F -16°C / 3°F
Humidity Altimeter Pressure
92% 29.35" Hg 994 hPa